General Aviation Weather

Text Reports

Enter one or more of the following location identifiers separated by a space:

Zip Code, Four-Character ICAO or Three-Character IATA airport codes.

METAR - Aviation Routine Weather Report
KIWI - Wiscasset, Maine
Updated at 3:53 PM GMT on February 28, 2015 (10:53 AM EST):
METAR KIWI 281553Z AUTO VRB05KT 10SM CLR M06/M21 A3071 RMK AO2 SLP401 T10561206
TAF - Terminal Area Forecast
KIWI - Wiscasset, Maine
Updated at 3:53 PM GMT on February 28, 2015 (10:53 AM EST):
No TAF is currently available for this location.
Decoded:
No decoded TAF is available.
PIREP - Pilot Weather Report
KIWI - Wiscasset, Maine
Updated at 3:53 PM GMT on February 28, 2015 (10:53 AM EST):
No PIREP is currently available for this location.
AIRMET - Airmens Meteorological Information
KIWI - Wiscasset, Maine
Updated at 3:53 PM GMT on February 28, 2015 (10:53 AM EST):
No AIRMET is currently available for this location.
SIGMET - Significant Meteorological Information
KIWI - Wiscasset, Maine
Updated at 3:53 PM GMT on February 28, 2015 (10:53 AM EST):
No SIGMET is currently available for this location.
NOTAM - Notice to Airmen
KIWI - Wiscasset, Maine
Updated at 3:53 PM GMT on February 28, 2015 (10:53 AM EST):
No NOTAM is currently available for this location.
Forecast Area
KIWI - Wiscasset, Maine
Updated at 3:53 PM GMT on February 28, 2015 (10:53 AM EST):
No NOTAM is currently available for this location.
Aviation Weather Maps